sensor_id;sensor_type;location;lat;lon;timestamp;pressure;altitude;pressure_sealevel;temperature;humidity
71109;BME280;59614;51.012;-1.648;2022-08-19T00:01:23;100462.38;;;18.73;96.17
71109;BME280;59614;51.012;-1.648;2022-08-19T00:03:48;100463.28;;;18.73;96.01
71109;BME280;59614;51.012;-1.648;2022-08-19T00:06:14;100464.13;;;18.74;96.11
71109;BME280;59614;51.012;-1.648;2022-08-19T00:08:40;100460.38;;;18.78;96.06
71109;BME280;59614;51.012;-1.648;2022-08-19T00:11:06;100462.16;;;18.77;95.98
71109;BME280;59614;51.012;-1.648;2022-08-19T00:13:33;100461.91;;;18.82;95.52
71109;BME280;59614;51.012;-1.648;2022-08-19T00:15:59;100463.28;;;18.73;96.05
71109;BME280;59614;51.012;-1.648;2022-08-19T00:18:24;100459.47;;;18.77;95.95
71109;BME280;59614;51.012;-1.648;2022-08-19T00:20:50;100456.91;;;18.76;95.99
71109;BME280;59614;51.012;-1.648;2022-08-19T00:23:16;100463.97;;;18.77;95.99
71109;BME280;59614;51.012;-1.648;2022-08-19T00:25:41;100465.06;;;18.73;96.10
71109;BME280;59614;51.012;-1.648;2022-08-19T00:28:07;100463.97;;;18.77;96.11
71109;BME280;59614;51.012;-1.648;2022-08-19T00:30:32;100465.16;;;18.71;96.38
71109;BME280;59614;51.012;-1.648;2022-08-19T00:32:58;100473.88;;;18.75;96.48
71109;BME280;59614;51.012;-1.648;2022-08-19T00:35:24;100470.34;;;18.74;96.03
71109;BME280;59614;51.012;-1.648;2022-08-19T00:37:52;100470.41;;;18.73;96.38
71109;BME280;59614;51.012;-1.648;2022-08-19T00:40:18;100463.31;;;18.72;96.56
71109;BME280;59614;51.012;-1.648;2022-08-19T00:42:44;100459.94;;;18.68;96.73
71109;BME280;59614;51.012;-1.648;2022-08-19T00:45:21;100464.88;;;18.58;97.00
71109;BME280;59614;51.012;-1.648;2022-08-19T00:47:46;100459.47;;;18.60;97.28
71109;BME280;59614;51.012;-1.648;2022-08-19T00:50:14;100465.66;;;18.60;97.19
71109;BME280;59614;51.012;-1.648;2022-08-19T00:52:45;100449.72;;;18.59;97.10
71109;BME280;59614;51.012;-1.648;2022-08-19T00:55:18;100459.25;;;18.64;96.88
71109;BME280;59614;51.012;-1.648;2022-08-19T00:57:48;100457.38;;;18.66;96.60
71109;BME280;59614;51.012;-1.648;2022-08-19T01:00:17;100457.38;;;18.66;96.41
71109;BME280;59614;51.012;-1.648;2022-08-19T01:02:44;100457.19;;;18.70;96.38
71109;BME280;59614;51.012;-1.648;2022-08-19T01:05:13;100453.91;;;18.64;97.09
71109;BME280;59614;51.012;-1.648;2022-08-19T01:07:40;100454.19;;;18.58;98.06
71109;BME280;59614;51.012;-1.648;2022-08-19T01:10:10;100454.19;;;18.58;98.08
71109;BME280;59614;51.012;-1.648;2022-08-19T01:12:37;100452.63;;;18.54;97.86
71109;BME280;59614;51.012;-1.648;2022-08-19T01:15:05;100451.59;;;18.57;98.01
71109;BME280;59614;51.012;-1.648;2022-08-19T01:17:32;100456.22;;;18.53;97.47
71109;BME280;59614;51.012;-1.648;2022-08-19T01:19:58;100450.00;;;18.52;97.37
71109;BME280;59614;51.012;-1.648;2022-08-19T01:24:49;100452.53;;;18.56;97.50
71109;BME280;59614;51.012;-1.648;2022-08-19T01:27:14;100447.41;;;18.51;98.20
71109;BME280;59614;51.012;-1.648;2022-08-19T01:29:41;100453.66;;;18.51;99.98
71109;BME280;59614;51.012;-1.648;2022-08-19T01:32:08;100453.94;;;18.45;100.00
71109;BME280;59614;51.012;-1.648;2022-08-19T01:34:37;100464.19;;;18.35;100.00
71109;BME280;59614;51.012;-1.648;2022-08-19T01:37:07;100454.47;;;18.34;100.00
71109;BME280;59614;51.012;-1.648;2022-08-19T01:39:34;100460.66;;;18.35;100.00
71109;BME280;59614;51.012;-1.648;2022-08-19T01:41:59;100450.28;;;18.29;100.00
71109;BME280;59614;51.012;-1.648;2022-08-19T01:44:28;100442.28;;;18.29;100.00
71109;BME280;59614;51.012;-1.648;2022-08-19T01:46:54;100446.88;;;18.25;100.00
71109;BME280;59614;51.012;-1.648;2022-08-19T01:49:22;100440.81;;;18.21;100.00
71109;BME280;59614;51.012;-1.648;2022-08-19T01:51:49;100447.31;;;18.16;100.00
71109;BME280;59614;51.012;-1.648;2022-08-19T01:54:16;100455.34;;;18.16;100.00
71109;BME280;59614;51.012;-1.648;2022-08-19T01:56:41;100451.94;;;18.12;100.00
71109;BME280;59614;51.012;-1.648;2022-08-19T01:59:10;100446.75;;;18.09;100.00
71109;BME280;59614;51.012;-1.648;2022-08-19T02:01:37;100452.31;;;18.04;100.00
71109;BME280;59614;51.012;-1.648;2022-08-19T02:04:03;100456.09;;;18.00;100.00
71109;BME280;59614;51.012;-1.648;2022-08-19T02:06:29;100464.84;;;18.02;100.00
71109;BME280;59614;51.012;-1.648;2022-08-19T02:08:55;100461.41;;;18.00;100.00
71109;BME280;59614;51.012;-1.648;2022-08-19T02:11:27;100457.66;;;18.04;100.00
71109;BME280;59614;51.012;-1.648;2022-08-19T02:13:53;100463.13;;;18.01;100.00
71109;BME280;59614;51.012;-1.648;2022-08-19T02:16:20;100464.81;;;18.04;100.00
71109;BME280;59614;51.012;-1.648;2022-08-19T02:18:46;100465.78;;;18.01;100.00
71109;BME280;59614;51.012;-1.648;2022-08-19T02:21:14;100468.56;;;18.00;100.00
71109;BME280;59614;51.012;-1.648;2022-08-19T02:23:41;100468.72;;;17.95;100.00
71109;BME280;59614;51.012;-1.648;2022-08-19T02:26:06;100470.59;;;17.93;100.00
71109;BME280;59614;51.012;-1.648;2022-08-19T02:28:32;100471.53;;;17.92;100.00
71109;BME280;59614;51.012;-1.648;2022-08-19T02:30:57;100468.22;;;17.87;100.00
71109;BME280;59614;51.012;-1.648;2022-08-19T02:33:24;100458.75;;;17.80;100.00
71109;BME280;59614;51.012;-1.648;2022-08-19T02:35:49;100469.94;;;17.69;100.00
71109;BME280;59614;51.012;-1.648;2022-08-19T02:38:16;100465.63;;;17.66;100.00
71109;BME280;59614;51.012;-1.648;2022-08-19T02:40:55;100457.63;;;17.66;100.00
71109;BME280;59614;51.012;-1.648;2022-08-19T02:43:21;100456.94;;;17.61;100.00
71109;BME280;59614;51.012;-1.648;2022-08-19T02:45:47;100454.56;;;17.55;100.00
71109;BME280;59614;51.012;-1.648;2022-08-19T02:48:18;100459.34;;;17.47;100.00
71109;BME280;59614;51.012;-1.648;2022-08-19T02:50:44;100460.38;;;17.44;100.00
71109;BME280;59614;51.012;-1.648;2022-08-19T02:53:10;100466.91;;;17.37;100.00
71109;BME280;59614;51.012;-1.648;2022-08-19T02:55:42;100471.31;;;17.38;100.00
71109;BME280;59614;51.012;-1.648;2022-08-19T02:58:08;100472.78;;;17.45;100.00
71109;BME280;59614;51.012;-1.648;2022-08-19T03:00:33;100471.63;;;17.51;100.00
71109;BME280;59614;51.012;-1.648;2022-08-19T03:02:59;100468.75;;;17.55;100.00
71109;BME280;59614;51.012;-1.648;2022-08-19T03:05:25;100471.63;;;17.51;100.00
71109;BME280;59614;51.012;-1.648;2022-08-19T03:07:52;100467.72;;;17.39;100.00
71109;BME280;59614;51.012;-1.648;2022-08-19T03:10:17;100473.38;;;17.31;100.00
71109;BME280;59614;51.012;-1.648;2022-08-19T03:12:43;100472.66;;;17.27;100.00
71109;BME280;59614;51.012;-1.648;2022-08-19T03:15:10;100472.47;;;17.32;100.00
71109;BME280;59614;51.012;-1.648;2022-08-19T03:17:35;100472.31;;;17.35;100.00
71109;BME280;59614;51.012;-1.648;2022-08-19T03:20:01;100480.31;;;17.35;100.00
71109;BME280;59614;51.012;-1.648;2022-08-19T03:22:26;100474.03;;;17.36;100.00
71109;BME280;59614;51.012;-1.648;2022-08-19T03:24:52;100477.91;;;17.29;100.00
71109;BME280;59614;51.012;-1.648;2022-08-19T03:27:18;100482.66;;;17.22;100.00
71109;BME280;59614;51.012;-1.648;2022-08-19T03:29:44;100477.31;;;17.22;100.00
71109;BME280;59614;51.012;-1.648;2022-08-19T03:32:10;100480.78;;;17.24;100.00
71109;BME280;59614;51.012;-1.648;2022-08-19T03:34:37;100479.69;;;17.28;100.00
71109;BME280;59614;51.012;-1.648;2022-08-19T03:37:09;100480.50;;;17.31;100.00
71109;BME280;59614;51.012;-1.648;2022-08-19T03:39:37;100480.31;;;17.35;100.00
71109;BME280;59614;51.012;-1.648;2022-08-19T03:42:04;100483.06;;;17.34;100.00
71109;BME280;59614;51.012;-1.648;2022-08-19T03:44:30;100483.78;;;17.37;100.00
71109;BME280;59614;51.012;-1.648;2022-08-19T03:46:58;100484.72;;;17.36;100.00
71109;BME280;59614;51.012;-1.648;2022-08-19T03:49:27;100488.59;;;17.29;100.00
71109;BME280;59614;51.012;-1.648;2022-08-19T03:51:54;100497.81;;;17.22;100.00
71109;BME280;59614;51.012;-1.648;2022-08-19T03:54:22;100500.63;;;17.17;100.00
71109;BME280;59614;51.012;-1.648;2022-08-19T03:56:52;100491.09;;;17.11;100.00
71109;BME280;59614;51.012;-1.648;2022-08-19T03:59:26;100496.38;;;17.13;100.00
71109;BME280;59614;51.012;-1.648;2022-08-19T04:01:54;100500.72;;;17.16;100.00
71109;BME280;59614;51.012;-1.648;2022-08-19T04:04:20;100502.13;;;17.24;100.00
71109;BME280;59614;51.012;-1.648;2022-08-19T04:06:47;100501.00;;;17.30;100.00
71109;BME280;59614;51.012;-1.648;2022-08-19T04:09:14;100495.66;;;17.30;100.00
71109;BME280;59614;51.012;-1.648;2022-08-19T04:11:55;100497.31;;;17.33;100.00
71109;BME280;59614;51.012;-1.648;2022-08-19T04:14:26;100508.19;;;17.28;100.00
71109;BME280;59614;51.012;-1.648;2022-08-19T04:16:55;100516.31;;;17.25;100.00
71109;BME280;59614;51.012;-1.648;2022-08-19T04:19:21;100524.47;;;17.22;100.00
71109;BME280;59614;51.012;-1.648;2022-08-19T04:21:49;100512.63;;;17.07;100.00
71109;BME280;59614;51.012;-1.648;2022-08-19T04:24:16;100509.50;;;16.97;100.00
71109;BME280;59614;51.012;-1.648;2022-08-19T04:26:41;100511.59;;;16.89;100.00
71109;BME280;59614;51.012;-1.648;2022-08-19T04:29:11;100518.78;;;16.87;100.00
71109;BME280;59614;51.012;-1.648;2022-08-19T04:31:37;100513.06;;;16.74;100.00
71109;BME280;59614;51.012;-1.648;2022-08-19T04:34:09;100517.47;;;16.75;100.00
71109;BME280;59614;51.012;-1.648;2022-08-19T04:36:37;100520.31;;;16.70;100.00
71109;BME280;59614;51.012;-1.648;2022-08-19T04:39:13;100515.94;;;16.69;100.00
71109;BME280;59614;51.012;-1.648;2022-08-19T04:41:39;100508.94;;;16.66;100.00
71109;BME280;59614;51.012;-1.648;2022-08-19T04:44:23;100515.06;;;16.68;100.00
71109;BME280;59614;51.012;-1.648;2022-08-19T04:46:50;100517.00;;;16.65;100.00
71109;BME280;59614;51.012;-1.648;2022-08-19T04:49:17;100520.50;;;16.65;100.00
71109;BME280;59614;51.012;-1.648;2022-08-19T04:51:44;100523.25;;;16.64;100.00
71109;BME280;59614;51.012;-1.648;2022-08-19T04:54:10;100530.94;;;16.72;100.00
71109;BME280;59614;51.012;-1.648;2022-08-19T04:56:36;100528.09;;;16.76;100.00
71109;BME280;59614;51.012;-1.648;2022-08-19T04:59:01;100531.69;;;16.75;100.00
71109;BME280;59614;51.012;-1.648;2022-08-19T05:01:31;100537.06;;;16.74;100.00
71109;BME280;59614;51.012;-1.648;2022-08-19T05:03:59;100531.69;;;16.75;100.00
71109;BME280;59614;51.012;-1.648;2022-08-19T05:06:25;100543.28;;;16.74;100.00
71109;BME280;59614;51.012;-1.648;2022-08-19T05:08:51;100547.72;;;16.74;100.00
71109;BME280;59614;51.012;-1.648;2022-08-19T05:11:27;100545.94;;;16.74;100.00
71109;BME280;59614;51.012;-1.648;2022-08-19T05:13:54;100542.47;;;16.72;100.00
71109;BME280;59614;51.012;-1.648;2022-08-19T05:16:21;100550.44;;;16.72;100.00
71109;BME280;59614;51.012;-1.648;2022-08-19T05:18:47;100542.47;;;16.72;100.00
71109;BME280;59614;51.012;-1.648;2022-08-19T05:21:32;100543.94;;;16.79;100.00
71109;BME280;59614;51.012;-1.648;2022-08-19T05:24:17;100557.06;;;16.84;100.00
71109;BME280;59614;51.012;-1.648;2022-08-19T05:26:46;100554.38;;;16.86;100.00
71109;BME280;59614;51.012;-1.648;2022-08-19T05:29:14;100562.09;;;16.92;100.00
71109;BME280;59614;51.012;-1.648;2022-08-19T05:31:40;100563.84;;;16.93;100.00
71109;BME280;59614;51.012;-1.648;2022-08-19T05:34:06;100567.22;;;16.98;100.00
71109;BME280;59614;51.012;-1.648;2022-08-19T05:36:40;100566.16;;;17.02;100.00
71109;BME280;59614;51.012;-1.648;2022-08-19T05:39:12;100571.44;;;17.04;100.00
71109;BME280;59614;51.012;-1.648;2022-08-19T05:41:43;100570.56;;;17.03;100.00
71109;BME280;59614;51.012;-1.648;2022-08-19T05:44:09;100572.28;;;17.04;100.00
71109;BME280;59614;51.012;-1.648;2022-08-19T05:46:36;100569.91;;;16.98;100.00
71109;BME280;59614;51.012;-1.648;2022-08-19T05:49:04;100572.50;;;17.00;100.00
71109;BME280;59614;51.012;-1.648;2022-08-19T05:51:30;100576.00;;;17.00;100.00
71109;BME280;59614;51.012;-1.648;2022-08-19T05:53:55;100573.53;;;16.95;100.00
71109;BME280;59614;51.012;-1.648;2022-08-19T05:56:20;100579.50;;;17.02;100.00
71109;BME280;59614;51.012;-1.648;2022-08-19T05:58:46;100577.56;;;17.06;100.00
71109;BME280;59614;51.012;-1.648;2022-08-19T06:01:15;100573.09;;;17.06;100.00
71109;BME280;59614;51.012;-1.648;2022-08-19T06:03:41;100576.31;;;17.14;100.00
71109;BME280;59614;51.012;-1.648;2022-08-19T06:06:08;100583.38;;;17.16;100.00
71109;BME280;59614;51.012;-1.648;2022-08-19T06:08:34;100578.59;;;17.24;100.00
71109;BME280;59614;51.012;-1.648;2022-08-19T06:13:46;100575.47;;;17.14;100.00
71109;BME280;59614;51.012;-1.648;2022-08-19T06:16:13;100573.59;;;17.16;100.00
71109;BME280;59614;51.012;-1.648;2022-08-19T06:18:46;100575.59;;;17.11;98.39
71109;BME280;59614;51.012;-1.648;2022-08-19T06:21:12;100576.28;;;17.16;100.00
71109;BME280;59614;51.012;-1.648;2022-08-19T06:23:37;100572.34;;;17.25;100.00
71109;BME280;59614;51.012;-1.648;2022-08-19T06:26:04;100572.50;;;17.22;100.00
71109;BME280;59614;51.012;-1.648;2022-08-19T06:28:30;100571.53;;;17.23;100.00
71109;BME280;59614;51.012;-1.648;2022-08-19T06:30:55;100574.47;;;17.17;98.89
71109;BME280;59614;51.012;-1.648;2022-08-19T06:33:20;100579.06;;;17.13;98.92
71109;BME280;59614;51.012;-1.648;2022-08-19T06:35:46;100578.31;;;17.09;100.00
71109;BME280;59614;51.012;-1.648;2022-08-19T06:38:11;100575.84;;;17.05;98.97
71109;BME280;59614;51.012;-1.648;2022-08-19T06:40:37;100577.91;;;16.98;99.07
71109;BME280;59614;51.012;-1.648;2022-08-19T06:43:03;100575.09;;;17.01;100.00
71109;BME280;59614;51.012;-1.648;2022-08-19T06:45:28;100583.22;;;16.98;100.00
71109;BME280;59614;51.012;-1.648;2022-08-19T06:47:55;100582.41;;;16.96;99.87
71109;BME280;59614;51.012;-1.648;2022-08-19T06:50:24;100587.84;;;16.93;100.00
71109;BME280;59614;51.012;-1.648;2022-08-19T06:52:50;100595.91;;;16.91;100.00
71109;BME280;59614;51.012;-1.648;2022-08-19T06:55:15;100603.94;;;16.90;100.00
71109;BME280;59614;51.012;-1.648;2022-08-19T06:57:42;100607.69;;;16.86;100.00
71109;BME280;59614;51.012;-1.648;2022-08-19T07:00:09;100604.31;;;16.80;99.51
71109;BME280;59614;51.012;-1.648;2022-08-19T07:02:42;100613.88;;;16.86;100.00
71109;BME280;59614;51.012;-1.648;2022-08-19T07:05:08;100614.00;;;16.83;100.00
71109;BME280;59614;51.012;-1.648;2022-08-19T07:07:34;100616.97;;;16.75;100.00
71109;BME280;59614;51.012;-1.648;2022-08-19T07:10:00;100611.75;;;16.72;100.00
71109;BME280;59614;51.012;-1.648;2022-08-19T07:12:27;100618.47;;;16.82;100.00
71109;BME280;59614;51.012;-1.648;2022-08-19T07:14:53;100615.25;;;16.96;100.00
71109;BME280;59614;51.012;-1.648;2022-08-19T07:17:18;100609.69;;;17.25;100.00
71109;BME280;59614;51.012;-1.648;2022-08-19T07:19:45;100609.72;;;17.45;100.00
71109;BME280;59614;51.012;-1.648;2022-08-19T07:22:10;100608.41;;;17.56;99.27
71109;BME280;59614;51.012;-1.648;2022-08-19T07:24:37;100608.47;;;17.54;97.50
71109;BME280;59614;51.012;-1.648;2022-08-19T07:27:03;100609.25;;;17.56;97.39
71109;BME280;59614;51.012;-1.648;2022-08-19T07:29:32;100608.97;;;17.63;97.23
71109;BME280;59614;51.012;-1.648;2022-08-19T07:32:00;100622.28;;;17.64;94.54
71109;BME280;59614;51.012;-1.648;2022-08-19T07:34:27;100618.00;;;17.81;94.60
71109;BME280;59614;51.012;-1.648;2022-08-19T07:36:54;100608.81;;;17.88;91.77
71109;BME280;59614;51.012;-1.648;2022-08-19T07:39:25;100616.69;;;18.12;91.86
71109;BME280;59614;51.012;-1.648;2022-08-19T07:41:51;100609.19;;;18.20;89.74
71109;BME280;59614;51.012;-1.648;2022-08-19T07:44:17;100612.13;;;18.34;90.65
71109;BME280;59614;51.012;-1.648;2022-08-19T07:46:45;100610.09;;;18.59;88.59
71109;BME280;59614;51.012;-1.648;2022-08-19T07:49:12;100607.66;;;18.73;87.79
71109;BME280;59614;51.012;-1.648;2022-08-19T07:51:43;100612.59;;;18.81;88.27
71109;BME280;59614;51.012;-1.648;2022-08-19T07:54:09;100614.56;;;18.77;88.46
71109;BME280;59614;51.012;-1.648;2022-08-19T07:56:34;100621.50;;;18.62;85.75
71109;BME280;59614;51.012;-1.648;2022-08-19T07:59:00;100619.75;;;18.42;84.97
71109;BME280;59614;51.012;-1.648;2022-08-19T08:01:27;100621.06;;;18.52;85.82
71109;BME280;59614;51.012;-1.648;2022-08-19T08:03:53;100625.44;;;18.74;83.19
71109;BME280;59614;51.012;-1.648;2022-08-19T08:06:37;100618.47;;;18.89;82.55
71109;BME280;59614;51.012;-1.648;2022-08-19T08:09:28;100626.06;;;19.18;83.71
71109;BME280;59614;51.012;-1.648;2022-08-19T08:12:06;100615.13;;;19.40;82.19
71109;BME280;59614;51.012;-1.648;2022-08-19T08:14:37;100625.63;;;19.62;82.25
71109;BME280;59614;51.012;-1.648;2022-08-19T08:17:04;100620.34;;;19.96;81.55
71109;BME280;59614;51.012;-1.648;2022-08-19T08:19:31;100625.69;;;20.13;73.10
71109;BME280;59614;51.012;-1.648;2022-08-19T08:21:58;100620.44;;;20.28;74.66
71109;BME280;59614;51.012;-1.648;2022-08-19T08:24:25;100630.97;;;20.48;77.35
71109;BME280;59614;51.012;-1.648;2022-08-19T08:26:51;100621.22;;;20.30;72.72
71109;BME280;59614;51.012;-1.648;2022-08-19T08:29:16;100626.94;;;20.24;72.46
71109;BME280;59614;51.012;-1.648;2022-08-19T08:31:43;100635.81;;;20.58;70.48
71109;BME280;59614;51.012;-1.648;2022-08-19T08:34:09;100625.88;;;20.60;71.24
71109;BME280;59614;51.012;-1.648;2022-08-19T08:36:41;100626.84;;;20.75;71.22
71109;BME280;59614;51.012;-1.648;2022-08-19T08:39:15;100623.38;;;21.51;70.17
71109;BME280;59614;51.012;-1.648;2022-08-19T08:44:20;100628.09;;;21.78;64.62
71109;BME280;59614;51.012;-1.648;2022-08-19T08:46:56;100636.22;;;21.46;66.77
71109;BME280;59614;51.012;-1.648;2022-08-19T08:52:22;100638.53;;;20.90;62.25
71109;BME280;59614;51.012;-1.648;2022-08-19T08:54:52;100635.75;;;20.91;62.09
71109;BME280;59614;51.012;-1.648;2022-08-19T09:00:09;100638.44;;;21.07;65.27
71109;BME280;59614;51.012;-1.648;2022-08-19T09:02:35;100635.19;;;21.49;59.50
71109;BME280;59614;51.012;-1.648;2022-08-19T09:05:01;100646.41;;;21.71;60.42
71109;BME280;59614;51.012;-1.648;2022-08-19T09:10:17;100645.41;;;21.42;60.06
71109;BME280;59614;51.012;-1.648;2022-08-19T09:15:12;100644.28;;;20.66;57.59
71109;BME280;59614;51.012;-1.648;2022-08-19T09:17:39;100643.66;;;20.78;57.68
71109;BME280;59614;51.012;-1.648;2022-08-19T09:22:34;100644.06;;;21.19;56.13
71109;BME280;59614;51.012;-1.648;2022-08-19T09:25:00;100646.31;;;20.78;54.57
71109;BME280;59614;51.012;-1.648;2022-08-19T09:27:28;100644.25;;;20.16;53.00
71109;BME280;59614;51.012;-1.648;2022-08-19T09:29:54;100652.28;;;20.16;53.45
71109;BME280;59614;51.012;-1.648;2022-08-19T09:32:21;100649.81;;;20.13;52.70
71109;BME280;59614;51.012;-1.648;2022-08-19T09:34:47;100652.06;;;20.55;58.45
71109;BME280;59614;51.012;-1.648;2022-08-19T09:37:13;100655.63;;;20.71;54.51
71109;BME280;59614;51.012;-1.648;2022-08-19T09:39:40;100668.47;;;20.98;54.02
71109;BME280;59614;51.012;-1.648;2022-08-19T09:42:06;100650.81;;;21.56;53.64
71109;BME280;59614;51.012;-1.648;2022-08-19T09:44:38;100663.47;;;22.01;49.91
71109;BME280;59614;51.012;-1.648;2022-08-19T09:47:03;100657.41;;;22.12;50.05
71109;BME280;59614;51.012;-1.648;2022-08-19T09:49:29;100657.59;;;21.64;51.50
71109;BME280;59614;51.012;-1.648;2022-08-19T09:51:55;100657.00;;;21.89;51.32
71109;BME280;59614;51.012;-1.648;2022-08-19T09:54:21;100659.56;;;22.35;49.88
71109;BME280;59614;51.012;-1.648;2022-08-19T09:56:47;100662.75;;;21.83;47.28
71109;BME280;59614;51.012;-1.648;2022-08-19T09:59:12;100658.72;;;21.90;49.59
71109;BME280;59614;51.012;-1.648;2022-08-19T10:01:38;100659.94;;;22.15;48.47
71109;BME280;59614;51.012;-1.648;2022-08-19T10:04:04;100656.19;;;22.32;47.86
71109;BME280;59614;51.012;-1.648;2022-08-19T10:06:33;100656.22;;;21.87;46.65
71109;BME280;59614;51.012;-1.648;2022-08-19T10:09:00;100664.81;;;21.31;45.89
71109;BME280;59614;51.012;-1.648;2022-08-19T10:11:25;100670.88;;;21.35;45.26
71109;BME280;59614;51.012;-1.648;2022-08-19T10:13:52;100659.28;;;23.11;44.55
71109;BME280;59614;51.012;-1.648;2022-08-19T10:16:21;100659.59;;;24.40;42.56
71109;BME280;59614;51.012;-1.648;2022-08-19T10:18:49;100652.59;;;24.25;43.93
71109;BME280;59614;51.012;-1.648;2022-08-19T10:21:28;100655.28;;;23.99;42.82
71109;BME280;59614;51.012;-1.648;2022-08-19T10:23:57;100648.41;;;22.85;43.75
71109;BME280;59614;51.012;-1.648;2022-08-19T10:28:51;100659.13;;;21.98;43.17
71109;BME280;59614;51.012;-1.648;2022-08-19T10:31:29;100662.13;;;22.80;42.64
71109;BME280;59614;51.012;-1.648;2022-08-19T10:33:56;100671.09;;;22.66;41.40
71109;BME280;59614;51.012;-1.648;2022-08-19T10:36:31;100665.25;;;22.45;41.41
71109;BME280;59614;51.012;-1.648;2022-08-19T10:38:59;100668.50;;;22.79;41.00
71109;BME280;59614;51.012;-1.648;2022-08-19T10:41:30;100660.88;;;22.86;40.96
71109;BME280;59614;51.012;-1.648;2022-08-19T10:43:59;100660.25;;;24.05;40.03
71109;BME280;59614;51.012;-1.648;2022-08-19T10:46:26;100654.91;;;24.68;40.27
71109;BME280;59614;51.012;-1.648;2022-08-19T10:48:53;100654.22;;;24.14;41.02
71109;BME280;59614;51.012;-1.648;2022-08-19T10:51:19;100657.22;;;24.23;37.99
71109;BME280;59614;51.012;-1.648;2022-08-19T10:54:03;100659.69;;;24.51;39.22
71109;BME280;59614;51.012;-1.648;2022-08-19T10:56:29;100656.63;;;25.68;36.95
71109;BME280;59614;51.012;-1.648;2022-08-19T10:59:14;100672.53;;;25.84;38.43
71109;BME280;59614;51.012;-1.648;2022-08-19T11:01:42;100686.13;;;25.47;37.06
71109;BME280;59614;51.012;-1.648;2022-08-19T11:04:08;100674.56;;;25.44;36.56
71109;BME280;59614;51.012;-1.648;2022-08-19T11:06:37;100666.63;;;25.90;37.45
71109;BME280;59614;51.012;-1.648;2022-08-19T11:09:03;100653.34;;;26.34;36.35
71109;BME280;59614;51.012;-1.648;2022-08-19T11:11:29;100670.91;;;25.46;36.55
71109;BME280;59614;51.012;-1.648;2022-08-19T11:13:55;100674.81;;;25.66;36.24
71109;BME280;59614;51.012;-1.648;2022-08-19T11:16:23;100668.69;;;26.11;36.64
71109;BME280;59614;51.012;-1.648;2022-08-19T11:18:53;100662.44;;;26.56;34.89
71109;BME280;59614;51.012;-1.648;2022-08-19T11:21:30;100660.81;;;27.10;36.36
71109;BME280;59614;51.012;-1.648;2022-08-19T11:23:59;100671.97;;;25.67;33.51
71109;BME280;59614;51.012;-1.648;2022-08-19T11:26:27;100662.13;;;25.55;34.17
71109;BME280;59614;51.012;-1.648;2022-08-19T11:28:53;100666.72;;;25.41;34.66
71109;BME280;59614;51.012;-1.648;2022-08-19T11:31:22;100664.16;;;25.03;34.11
71109;BME280;59614;51.012;-1.648;2022-08-19T11:33:47;100674.03;;;25.88;35.44
71109;BME280;59614;51.012;-1.648;2022-08-19T11:36:17;100660.41;;;25.54;33.46
71109;BME280;59614;51.012;-1.648;2022-08-19T11:38:44;100670.38;;;25.16;36.79
71109;BME280;59614;51.012;-1.648;2022-08-19T11:41:10;100667.50;;;26.49;37.91
71109;BME280;59614;51.012;-1.648;2022-08-19T11:43:37;100676.22;;;26.41;32.96
71109;BME280;59614;51.012;-1.648;2022-08-19T11:46:06;100674.63;;;26.84;34.68
71109;BME280;59614;51.012;-1.648;2022-08-19T11:48:33;100675.13;;;27.33;32.76
71109;BME280;59614;51.012;-1.648;2022-08-19T11:50:58;100673.25;;;27.12;32.96
71109;BME280;59614;51.012;-1.648;2022-08-19T11:53:24;100680.50;;;27.23;31.99
71109;BME280;59614;51.012;-1.648;2022-08-19T11:55:52;100679.19;;;26.38;31.96
71109;BME280;59614;51.012;-1.648;2022-08-19T11:58:21;100677.81;;;25.12;33.27
71109;BME280;59614;51.012;-1.648;2022-08-19T12:00:47;100668.38;;;26.49;34.55
71109;BME280;59614;51.012;-1.648;2022-08-19T12:03:13;100672.69;;;25.58;32.68
71109;BME280;59614;51.012;-1.648;2022-08-19T12:05:39;100673.00;;;25.78;33.85
71109;BME280;59614;51.012;-1.648;2022-08-19T12:08:05;100678.31;;;26.94;34.15
71109;BME280;59614;51.012;-1.648;2022-08-19T12:10:31;100670.88;;;27.19;33.14
71109;BME280;59614;51.012;-1.648;2022-08-19T12:12:57;100664.38;;;27.10;31.78
71109;BME280;59614;51.012;-1.648;2022-08-19T12:15:23;100668.66;;;27.89;31.94
71109;BME280;59614;51.012;-1.648;2022-08-19T12:17:49;100660.41;;;28.43;32.25
71109;BME280;59614;51.012;-1.648;2022-08-19T12:20:15;100667.19;;;28.28;29.89
71109;BME280;59614;51.012;-1.648;2022-08-19T12:22:42;100668.00;;;26.54;33.40
71109;BME280;59614;51.012;-1.648;2022-08-19T12:25:09;100674.63;;;27.51;32.21
71109;BME280;59614;51.012;-1.648;2022-08-19T12:27:36;100665.72;;;27.81;31.61
71109;BME280;59614;51.012;-1.648;2022-08-19T12:30:03;100671.19;;;26.93;32.01
71109;BME280;59614;51.012;-1.648;2022-08-19T12:32:28;100679.00;;;25.46;34.34
71109;BME280;59614;51.012;-1.648;2022-08-19T12:34:54;100670.94;;;26.51;34.18
71109;BME280;59614;51.012;-1.648;2022-08-19T12:37:19;100660.34;;;26.48;33.71
71109;BME280;59614;51.012;-1.648;2022-08-19T12:39:45;100665.13;;;25.74;34.85
71109;BME280;59614;51.012;-1.648;2022-08-19T12:42:12;100665.81;;;24.79;36.47
71109;BME280;59614;51.012;-1.648;2022-08-19T12:44:40;100683.69;;;26.15;34.67
71109;BME280;59614;51.012;-1.648;2022-08-19T12:47:06;100672.03;;;25.90;35.28
71109;BME280;59614;51.012;-1.648;2022-08-19T12:49:33;100665.22;;;24.37;38.81
71109;BME280;59614;51.012;-1.648;2022-08-19T12:52:03;100673.44;;;26.07;35.22
71109;BME280;59614;51.012;-1.648;2022-08-19T12:54:29;100664.75;;;27.06;33.72
71109;BME280;59614;51.012;-1.648;2022-08-19T12:56:56;100670.56;;;27.78;32.87
71109;BME280;59614;51.012;-1.648;2022-08-19T12:59:21;100667.78;;;28.31;31.17
71109;BME280;59614;51.012;-1.648;2022-08-19T13:01:47;100653.44;;;28.19;31.87